sensor_id;sensor_type;location;lat;lon;timestamp;temperature;humidity
12015;DHT22;6066;48.138;16.402;2023-02-01T00:01:19;4.40;99.90
12015;DHT22;6066;48.138;16.402;2023-02-01T00:03:46;4.40;99.90
12015;DHT22;6066;48.138;16.402;2023-02-01T00:06:13;4.50;99.90
12015;DHT22;6066;48.138;16.402;2023-02-01T00:08:39;4.50;99.90
12015;DHT22;6066;48.138;16.402;2023-02-01T00:11:06;4.40;99.90
12015;DHT22;6066;48.138;16.402;2023-02-01T00:13:34;4.40;99.90
12015;DHT22;6066;48.138;16.402;2023-02-01T00:16:03;4.40;99.90
12015;DHT22;6066;48.138;16.402;2023-02-01T00:18:31;4.50;99.90
12015;DHT22;6066;48.138;16.402;2023-02-01T00:20:58;4.40;99.90
12015;DHT22;6066;48.138;16.402;2023-02-01T00:23:25;4.50;99.90
12015;DHT22;6066;48.138;16.402;2023-02-01T00:25:52;4.50;99.90
12015;DHT22;6066;48.138;16.402;2023-02-01T00:28:18;4.50;99.90
12015;DHT22;6066;48.138;16.402;2023-02-01T00:30:45;4.50;99.90
12015;DHT22;6066;48.138;16.402;2023-02-01T00:33:12;4.40;99.90
12015;DHT22;6066;48.138;16.402;2023-02-01T00:35:40;4.40;99.90
12015;DHT22;6066;48.138;16.402;2023-02-01T00:38:06;4.40;99.90
12015;DHT22;6066;48.138;16.402;2023-02-01T00:40:33;4.30;99.90
12015;DHT22;6066;48.138;16.402;2023-02-01T00:43:00;4.30;99.90
12015;DHT22;6066;48.138;16.402;2023-02-01T00:45:27;4.40;99.90
12015;DHT22;6066;48.138;16.402;2023-02-01T00:47:53;4.40;99.90
12015;DHT22;6066;48.138;16.402;2023-02-01T00:50:20;4.50;99.90
12015;DHT22;6066;48.138;16.402;2023-02-01T00:52:48;4.50;99.90
12015;DHT22;6066;48.138;16.402;2023-02-01T00:55:14;4.60;99.90
12015;DHT22;6066;48.138;16.402;2023-02-01T00:57:41;4.60;99.90
12015;DHT22;6066;48.138;16.402;2023-02-01T01:00:08;4.60;99.90
12015;DHT22;6066;48.138;16.402;2023-02-01T01:02:35;4.60;99.90
12015;DHT22;6066;48.138;16.402;2023-02-01T01:05:02;4.70;99.90
12015;DHT22;6066;48.138;16.402;2023-02-01T01:07:28;4.60;99.90
12015;DHT22;6066;48.138;16.402;2023-02-01T01:09:56;4.70;99.90
12015;DHT22;6066;48.138;16.402;2023-02-01T01:12:23;4.60;99.90
12015;DHT22;6066;48.138;16.402;2023-02-01T01:14:50;4.70;99.90
12015;DHT22;6066;48.138;16.402;2023-02-01T01:17:16;4.70;99.90
12015;DHT22;6066;48.138;16.402;2023-02-01T01:19:43;4.70;99.90
12015;DHT22;6066;48.138;16.402;2023-02-01T01:22:10;4.80;99.90
12015;DHT22;6066;48.138;16.402;2023-02-01T01:24:36;4.70;99.90
12015;DHT22;6066;48.138;16.402;2023-02-01T01:27:04;4.70;99.90
12015;DHT22;6066;48.138;16.402;2023-02-01T01:29:31;4.70;99.90
12015;DHT22;6066;48.138;16.402;2023-02-01T01:31:58;4.70;99.90
12015;DHT22;6066;48.138;16.402;2023-02-01T01:34:24;4.70;99.90
12015;DHT22;6066;48.138;16.402;2023-02-01T01:36:51;4.70;99.90
12015;DHT22;6066;48.138;16.402;2023-02-01T01:39:18;4.70;99.90
12015;DHT22;6066;48.138;16.402;2023-02-01T01:41:44;4.80;99.90
12015;DHT22;6066;48.138;16.402;2023-02-01T01:46:54;4.80;99.90
12015;DHT22;6066;48.138;16.402;2023-02-01T01:49:21;4.80;99.90
12015;DHT22;6066;48.138;16.402;2023-02-01T01:51:50;4.80;99.90
12015;DHT22;6066;48.138;16.402;2023-02-01T01:54:18;4.80;99.90
12015;DHT22;6066;48.138;16.402;2023-02-01T01:56:48;4.70;99.90
12015;DHT22;6066;48.138;16.402;2023-02-01T01:59:15;4.70;99.90
12015;DHT22;6066;48.138;16.402;2023-02-01T02:01:42;4.70;99.90
12015;DHT22;6066;48.138;16.402;2023-02-01T02:04:11;4.70;99.90
12015;DHT22;6066;48.138;16.402;2023-02-01T02:06:40;4.60;99.90
12015;DHT22;6066;48.138;16.402;2023-02-01T02:09:10;4.70;99.90
12015;DHT22;6066;48.138;16.402;2023-02-01T02:11:37;4.70;99.90
12015;DHT22;6066;48.138;16.402;2023-02-01T02:14:04;4.70;99.90
12015;DHT22;6066;48.138;16.402;2023-02-01T02:16:45;4.70;99.90
12015;DHT22;6066;48.138;16.402;2023-02-01T02:22:08;4.70;99.90
12015;DHT22;6066;48.138;16.402;2023-02-01T02:24:45;4.80;99.90
12015;DHT22;6066;48.138;16.402;2023-02-01T02:27:24;4.80;99.90
12015;DHT22;6066;48.138;16.402;2023-02-01T02:30:02;4.70;99.90
12015;DHT22;6066;48.138;16.402;2023-02-01T02:35:31;4.80;99.90
12015;DHT22;6066;48.138;16.402;2023-02-01T02:38:05;4.70;99.90
12015;DHT22;6066;48.138;16.402;2023-02-01T02:40:41;4.70;99.90
12015;DHT22;6066;48.138;16.402;2023-02-01T02:43:09;4.60;99.90
12015;DHT22;6066;48.138;16.402;2023-02-01T02:45:55;4.70;99.90
12015;DHT22;6066;48.138;16.402;2023-02-01T02:48:59;4.60;99.90
12015;DHT22;6066;48.138;16.402;2023-02-01T02:51:29;4.60;99.90
12015;DHT22;6066;48.138;16.402;2023-02-01T02:54:17;4.70;99.90
12015;DHT22;6066;48.138;16.402;2023-02-01T02:57:04;4.70;99.90
12015;DHT22;6066;48.138;16.402;2023-02-01T02:59:49;4.70;99.90
12015;DHT22;6066;48.138;16.402;2023-02-01T03:02:34;4.60;99.90
12015;DHT22;6066;48.138;16.402;2023-02-01T03:05:19;4.60;99.90
12015;DHT22;6066;48.138;16.402;2023-02-01T03:07:49;4.60;99.90
12015;DHT22;6066;48.138;16.402;2023-02-01T03:10:22;4.60;99.90
12015;DHT22;6066;48.138;16.402;2023-02-01T03:12:50;4.60;99.90
12015;DHT22;6066;48.138;16.402;2023-02-01T03:15:24;4.60;99.90
12015;DHT22;6066;48.138;16.402;2023-02-01T03:17:52;4.60;99.90
12015;DHT22;6066;48.138;16.402;2023-02-01T03:20:20;4.50;99.90
12015;DHT22;6066;48.138;16.402;2023-02-01T03:22:50;4.50;99.90
12015;DHT22;6066;48.138;16.402;2023-02-01T03:25:18;4.50;99.90
12015;DHT22;6066;48.138;16.402;2023-02-01T03:27:48;4.50;99.90
12015;DHT22;6066;48.138;16.402;2023-02-01T03:30:18;4.40;99.90
12015;DHT22;6066;48.138;16.402;2023-02-01T03:32:46;4.40;99.90
12015;DHT22;6066;48.138;16.402;2023-02-01T03:35:26;4.50;99.90
12015;DHT22;6066;48.138;16.402;2023-02-01T03:37:56;4.40;99.90
12015;DHT22;6066;48.138;16.402;2023-02-01T03:40:27;4.40;99.90
12015;DHT22;6066;48.138;16.402;2023-02-01T03:42:56;4.40;99.90
12015;DHT22;6066;48.138;16.402;2023-02-01T03:45:26;4.50;99.90
12015;DHT22;6066;48.138;16.402;2023-02-01T03:47:55;4.50;99.90
12015;DHT22;6066;48.138;16.402;2023-02-01T03:50:23;4.50;99.90
12015;DHT22;6066;48.138;16.402;2023-02-01T03:52:52;4.60;99.90
12015;DHT22;6066;48.138;16.402;2023-02-01T03:55:22;4.60;99.90
12015;DHT22;6066;48.138;16.402;2023-02-01T03:57:50;4.60;99.90
12015;DHT22;6066;48.138;16.402;2023-02-01T04:00:19;4.60;99.90
12015;DHT22;6066;48.138;16.402;2023-02-01T04:02:47;4.60;99.90
12015;DHT22;6066;48.138;16.402;2023-02-01T04:05:13;4.60;99.90
12015;DHT22;6066;48.138;16.402;2023-02-01T04:07:40;4.60;99.90
12015;DHT22;6066;48.138;16.402;2023-02-01T04:10:08;4.60;99.90
12015;DHT22;6066;48.138;16.402;2023-02-01T04:12:36;4.70;99.90
12015;DHT22;6066;48.138;16.402;2023-02-01T04:15:03;4.80;99.90
12015;DHT22;6066;48.138;16.402;2023-02-01T04:17:30;4.80;99.90
12015;DHT22;6066;48.138;16.402;2023-02-01T04:19:57;4.80;99.90
12015;DHT22;6066;48.138;16.402;2023-02-01T04:22:23;4.80;99.90
12015;DHT22;6066;48.138;16.402;2023-02-01T04:24:50;4.80;99.90
12015;DHT22;6066;48.138;16.402;2023-02-01T04:27:17;4.90;99.90
12015;DHT22;6066;48.138;16.402;2023-02-01T04:29:45;4.90;99.90
12015;DHT22;6066;48.138;16.402;2023-02-01T04:32:11;4.80;99.90
12015;DHT22;6066;48.138;16.402;2023-02-01T04:34:38;4.90;99.90
12015;DHT22;6066;48.138;16.402;2023-02-01T04:37:05;4.90;99.90
12015;DHT22;6066;48.138;16.402;2023-02-01T04:39:32;5.00;99.90
12015;DHT22;6066;48.138;16.402;2023-02-01T04:41:59;5.00;99.90
12015;DHT22;6066;48.138;16.402;2023-02-01T04:44:25;5.10;99.90
12015;DHT22;6066;48.138;16.402;2023-02-01T04:46:53;5.10;99.90
12015;DHT22;6066;48.138;16.402;2023-02-01T04:49:20;5.10;99.90
12015;DHT22;6066;48.138;16.402;2023-02-01T04:51:47;5.10;99.90
12015;DHT22;6066;48.138;16.402;2023-02-01T04:54:14;5.10;99.90
12015;DHT22;6066;48.138;16.402;2023-02-01T04:56:41;5.10;99.90
12015;DHT22;6066;48.138;16.402;2023-02-01T04:59:11;5.10;99.90
12015;DHT22;6066;48.138;16.402;2023-02-01T05:01:38;5.00;99.90
12015;DHT22;6066;48.138;16.402;2023-02-01T05:04:06;5.00;99.90
12015;DHT22;6066;48.138;16.402;2023-02-01T05:06:32;5.00;99.90
12015;DHT22;6066;48.138;16.402;2023-02-01T05:08:59;5.00;99.90
12015;DHT22;6066;48.138;16.402;2023-02-01T05:11:26;5.10;99.90
12015;DHT22;6066;48.138;16.402;2023-02-01T05:14:10;5.10;99.90
12015;DHT22;6066;48.138;16.402;2023-02-01T05:16:37;5.10;99.90
12015;DHT22;6066;48.138;16.402;2023-02-01T05:19:03;5.10;99.90
12015;DHT22;6066;48.138;16.402;2023-02-01T05:21:31;5.20;99.90
12015;DHT22;6066;48.138;16.402;2023-02-01T05:23:58;5.20;99.90
12015;DHT22;6066;48.138;16.402;2023-02-01T05:26:38;5.20;99.90
12015;DHT22;6066;48.138;16.402;2023-02-01T05:29:05;5.20;99.90
12015;DHT22;6066;48.138;16.402;2023-02-01T05:31:32;5.20;99.90
12015;DHT22;6066;48.138;16.402;2023-02-01T05:33:59;5.20;99.90
12015;DHT22;6066;48.138;16.402;2023-02-01T05:36:25;5.20;99.90
12015;DHT22;6066;48.138;16.402;2023-02-01T05:38:53;5.30;99.90
12015;DHT22;6066;48.138;16.402;2023-02-01T05:41:20;5.30;99.90
12015;DHT22;6066;48.138;16.402;2023-02-01T05:43:47;5.30;99.90
12015;DHT22;6066;48.138;16.402;2023-02-01T05:46:14;5.30;99.90
12015;DHT22;6066;48.138;16.402;2023-02-01T05:48:40;5.20;99.90
12015;DHT22;6066;48.138;16.402;2023-02-01T05:51:07;5.10;99.90
12015;DHT22;6066;48.138;16.402;2023-02-01T05:53:34;5.10;99.90
12015;DHT22;6066;48.138;16.402;2023-02-01T05:56:02;5.10;99.90
12015;DHT22;6066;48.138;16.402;2023-02-01T05:58:29;5.00;99.90
12015;DHT22;6066;48.138;16.402;2023-02-01T06:00:57;5.10;99.90
12015;DHT22;6066;48.138;16.402;2023-02-01T06:03:25;5.00;99.90
12015;DHT22;6066;48.138;16.402;2023-02-01T06:05:51;5.10;99.90
12015;DHT22;6066;48.138;16.402;2023-02-01T06:08:18;5.10;99.90
12015;DHT22;6066;48.138;16.402;2023-02-01T06:10:45;5.10;99.90
12015;DHT22;6066;48.138;16.402;2023-02-01T06:13:13;5.20;99.90
12015;DHT22;6066;48.138;16.402;2023-02-01T06:15:39;5.30;99.90
12015;DHT22;6066;48.138;16.402;2023-02-01T06:18:07;5.20;99.90
12015;DHT22;6066;48.138;16.402;2023-02-01T06:20:34;5.20;99.90
12015;DHT22;6066;48.138;16.402;2023-02-01T06:23:01;5.30;99.90
12015;DHT22;6066;48.138;16.402;2023-02-01T06:25:27;5.30;99.90
12015;DHT22;6066;48.138;16.402;2023-02-01T06:27:54;5.40;99.90
12015;DHT22;6066;48.138;16.402;2023-02-01T06:30:22;5.50;99.90
12015;DHT22;6066;48.138;16.402;2023-02-01T06:32:50;5.40;99.90
12015;DHT22;6066;48.138;16.402;2023-02-01T06:35:18;5.50;99.90
12015;DHT22;6066;48.138;16.402;2023-02-01T06:37:45;5.50;99.90
12015;DHT22;6066;48.138;16.402;2023-02-01T06:40:12;5.60;99.90
12015;DHT22;6066;48.138;16.402;2023-02-01T06:42:39;5.60;99.90
12015;DHT22;6066;48.138;16.402;2023-02-01T06:45:06;5.60;99.90
12015;DHT22;6066;48.138;16.402;2023-02-01T06:47:35;5.60;99.90
12015;DHT22;6066;48.138;16.402;2023-02-01T06:50:01;5.60;99.90
12015;DHT22;6066;48.138;16.402;2023-02-01T06:52:28;5.60;99.90
12015;DHT22;6066;48.138;16.402;2023-02-01T06:54:55;5.60;99.90
12015;DHT22;6066;48.138;16.402;2023-02-01T06:57:21;5.70;99.90
12015;DHT22;6066;48.138;16.402;2023-02-01T06:59:48;5.70;99.90
12015;DHT22;6066;48.138;16.402;2023-02-01T07:02:15;5.70;99.90
12015;DHT22;6066;48.138;16.402;2023-02-01T07:04:43;5.70;99.90
12015;DHT22;6066;48.138;16.402;2023-02-01T07:07:09;5.70;99.90
12015;DHT22;6066;48.138;16.402;2023-02-01T07:09:37;5.70;99.90
12015;DHT22;6066;48.138;16.402;2023-02-01T07:12:04;5.60;99.90
12015;DHT22;6066;48.138;16.402;2023-02-01T07:14:31;5.50;99.90
12015;DHT22;6066;48.138;16.402;2023-02-01T07:16:57;5.50;99.90
12015;DHT22;6066;48.138;16.402;2023-02-01T07:19:24;5.40;99.90
12015;DHT22;6066;48.138;16.402;2023-02-01T07:21:52;5.40;99.90
12015;DHT22;6066;48.138;16.402;2023-02-01T07:24:19;5.50;99.90
12015;DHT22;6066;48.138;16.402;2023-02-01T07:26:45;5.60;99.90
12015;DHT22;6066;48.138;16.402;2023-02-01T07:29:13;5.60;99.90
12015;DHT22;6066;48.138;16.402;2023-02-01T07:31:39;5.70;99.90
12015;DHT22;6066;48.138;16.402;2023-02-01T07:34:06;5.70;99.90
12015;DHT22;6066;48.138;16.402;2023-02-01T07:36:33;5.80;99.90
12015;DHT22;6066;48.138;16.402;2023-02-01T07:39:03;5.80;99.90
12015;DHT22;6066;48.138;16.402;2023-02-01T07:41:29;5.90;99.90
12015;DHT22;6066;48.138;16.402;2023-02-01T07:43:56;5.90;99.90
12015;DHT22;6066;48.138;16.402;2023-02-01T07:46:23;5.90;99.90
12015;DHT22;6066;48.138;16.402;2023-02-01T07:48:49;5.90;99.90
12015;DHT22;6066;48.138;16.402;2023-02-01T07:51:16;5.90;99.90
12015;DHT22;6066;48.138;16.402;2023-02-01T07:53:43;5.90;99.90
12015;DHT22;6066;48.138;16.402;2023-02-01T07:56:12;6.00;99.90
12015;DHT22;6066;48.138;16.402;2023-02-01T07:58:38;6.00;99.90
12015;DHT22;6066;48.138;16.402;2023-02-01T08:01:05;6.00;99.90
12015;DHT22;6066;48.138;16.402;2023-02-01T08:03:47;6.00;99.90
12015;DHT22;6066;48.138;16.402;2023-02-01T08:06:13;6.00;99.90
12015;DHT22;6066;48.138;16.402;2023-02-01T08:08:40;6.00;99.90
12015;DHT22;6066;48.138;16.402;2023-02-01T08:11:08;6.00;99.90
12015;DHT22;6066;48.138;16.402;2023-02-01T08:13:36;5.90;99.90
12015;DHT22;6066;48.138;16.402;2023-02-01T08:16:03;5.80;99.90
12015;DHT22;6066;48.138;16.402;2023-02-01T08:18:30;5.80;99.90
12015;DHT22;6066;48.138;16.402;2023-02-01T08:21:02;5.70;99.90
12015;DHT22;6066;48.138;16.402;2023-02-01T08:23:28;5.60;99.90
12015;DHT22;6066;48.138;16.402;2023-02-01T08:26:03;5.60;99.90
12015;DHT22;6066;48.138;16.402;2023-02-01T08:28:29;5.60;99.90
12015;DHT22;6066;48.138;16.402;2023-02-01T08:30:58;5.60;99.90
12015;DHT22;6066;48.138;16.402;2023-02-01T08:33:24;5.60;99.90
12015;DHT22;6066;48.138;16.402;2023-02-01T08:35:51;5.80;99.90
12015;DHT22;6066;48.138;16.402;2023-02-01T08:38:18;5.80;99.90
12015;DHT22;6066;48.138;16.402;2023-02-01T08:40:44;5.90;99.90
12015;DHT22;6066;48.138;16.402;2023-02-01T08:43:11;6.10;99.90
12015;DHT22;6066;48.138;16.402;2023-02-01T08:45:40;6.30;99.90
12015;DHT22;6066;48.138;16.402;2023-02-01T08:48:08;6.50;99.90
12015;DHT22;6066;48.138;16.402;2023-02-01T08:50:35;6.60;99.90
12015;DHT22;6066;48.138;16.402;2023-02-01T08:53:02;6.80;99.90
12015;DHT22;6066;48.138;16.402;2023-02-01T08:55:28;6.80;99.90
12015;DHT22;6066;48.138;16.402;2023-02-01T08:57:55;6.80;99.90
12015;DHT22;6066;48.138;16.402;2023-02-01T09:00:22;6.90;99.90
12015;DHT22;6066;48.138;16.402;2023-02-01T09:02:50;6.80;99.90
12015;DHT22;6066;48.138;16.402;2023-02-01T09:05:18;6.80;99.90
12015;DHT22;6066;48.138;16.402;2023-02-01T09:07:47;6.80;99.90
12015;DHT22;6066;48.138;16.402;2023-02-01T09:10:14;6.80;99.90
12015;DHT22;6066;48.138;16.402;2023-02-01T09:12:42;6.80;99.90
12015;DHT22;6066;48.138;16.402;2023-02-01T09:15:08;6.70;99.90
12015;DHT22;6066;48.138;16.402;2023-02-01T09:17:35;6.70;99.90
12015;DHT22;6066;48.138;16.402;2023-02-01T09:20:02;6.70;99.90
12015;DHT22;6066;48.138;16.402;2023-02-01T09:22:31;6.70;99.90
12015;DHT22;6066;48.138;16.402;2023-02-01T09:24:57;6.60;99.90
12015;DHT22;6066;48.138;16.402;2023-02-01T09:27:24;6.50;99.90
12015;DHT22;6066;48.138;16.402;2023-02-01T09:29:51;6.50;99.90
12015;DHT22;6066;48.138;16.402;2023-02-01T09:32:18;6.40;99.90
12015;DHT22;6066;48.138;16.402;2023-02-01T09:34:45;6.50;99.90
12015;DHT22;6066;48.138;16.402;2023-02-01T09:37:12;6.50;99.90
12015;DHT22;6066;48.138;16.402;2023-02-01T09:39:40;6.50;99.90
12015;DHT22;6066;48.138;16.402;2023-02-01T09:42:12;6.50;99.90
12015;DHT22;6066;48.138;16.402;2023-02-01T09:44:49;6.50;99.90
12015;DHT22;6066;48.138;16.402;2023-02-01T09:47:21;6.50;99.90
12015;DHT22;6066;48.138;16.402;2023-02-01T09:49:50;6.50;99.90
12015;DHT22;6066;48.138;16.402;2023-02-01T09:52:19;6.40;99.90
12015;DHT22;6066;48.138;16.402;2023-02-01T09:54:51;6.30;99.90
12015;DHT22;6066;48.138;16.402;2023-02-01T09:57:19;6.20;99.90
12015;DHT22;6066;48.138;16.402;2023-02-01T09:59:49;6.10;99.90
12015;DHT22;6066;48.138;16.402;2023-02-01T10:02:19;6.00;99.90
12015;DHT22;6066;48.138;16.402;2023-02-01T10:04:46;5.90;99.90
12015;DHT22;6066;48.138;16.402;2023-02-01T10:07:17;6.00;99.90
12015;DHT22;6066;48.138;16.402;2023-02-01T10:09:50;5.90;99.90
12015;DHT22;6066;48.138;16.402;2023-02-01T10:15:09;6.00;99.90
12015;DHT22;6066;48.138;16.402;2023-02-01T10:17:45;6.10;99.90
12015;DHT22;6066;48.138;16.402;2023-02-01T10:20:16;6.20;99.90
12015;DHT22;6066;48.138;16.402;2023-02-01T10:22:46;6.30;99.90
12015;DHT22;6066;48.138;16.402;2023-02-01T10:25:22;6.40;99.90
12015;DHT22;6066;48.138;16.402;2023-02-01T10:27:50;6.50;99.90
12015;DHT22;6066;48.138;16.402;2023-02-01T10:30:18;6.70;99.90
12015;DHT22;6066;48.138;16.402;2023-02-01T10:32:45;6.80;99.90
12015;DHT22;6066;48.138;16.402;2023-02-01T10:35:15;6.90;99.90
12015;DHT22;6066;48.138;16.402;2023-02-01T10:37:42;7.00;99.90
12015;DHT22;6066;48.138;16.402;2023-02-01T10:40:12;7.20;99.90
12015;DHT22;6066;48.138;16.402;2023-02-01T10:42:43;7.30;99.90
12015;DHT22;6066;48.138;16.402;2023-02-01T10:45:12;7.30;99.90
12015;DHT22;6066;48.138;16.402;2023-02-01T10:47:39;7.40;99.90
12015;DHT22;6066;48.138;16.402;2023-02-01T10:50:11;7.40;99.90
12015;DHT22;6066;48.138;16.402;2023-02-01T10:52:41;7.40;99.90
12015;DHT22;6066;48.138;16.402;2023-02-01T10:55:26;7.50;99.90
12015;DHT22;6066;48.138;16.402;2023-02-01T10:57:58;7.50;99.90
12015;DHT22;6066;48.138;16.402;2023-02-01T11:00:25;7.50;99.90
12015;DHT22;6066;48.138;16.402;2023-02-01T11:02:52;7.50;99.90
12015;DHT22;6066;48.138;16.402;2023-02-01T11:05:19;7.50;99.90
12015;DHT22;6066;48.138;16.402;2023-02-01T11:07:48;7.30;99.90
12015;DHT22;6066;48.138;16.402;2023-02-01T11:12:58;6.90;99.90
12015;DHT22;6066;48.138;16.402;2023-02-01T11:15:28;6.80;99.90
12015;DHT22;6066;48.138;16.402;2023-02-01T11:17:54;6.70;99.90
12015;DHT22;6066;48.138;16.402;2023-02-01T11:20:26;6.60;99.90
12015;DHT22;6066;48.138;16.402;2023-02-01T11:23:01;6.60;99.90
12015;DHT22;6066;48.138;16.402;2023-02-01T11:25:28;6.60;99.90
12015;DHT22;6066;48.138;16.402;2023-02-01T11:27:58;6.60;99.90
12015;DHT22;6066;48.138;16.402;2023-02-01T11:30:28;6.50;99.90
12015;DHT22;6066;48.138;16.402;2023-02-01T11:32:56;6.40;99.90
12015;DHT22;6066;48.138;16.402;2023-02-01T11:35:24;6.30;99.90
12015;DHT22;6066;48.138;16.402;2023-02-01T11:37:52;6.20;99.90
12015;DHT22;6066;48.138;16.402;2023-02-01T11:40:25;6.10;99.90
12015;DHT22;6066;48.138;16.402;2023-02-01T11:42:53;5.90;99.90
12015;DHT22;6066;48.138;16.402;2023-02-01T11:45:25;5.80;99.90
12015;DHT22;6066;48.138;16.402;2023-02-01T11:47:54;5.70;99.90
12015;DHT22;6066;48.138;16.402;2023-02-01T11:50:24;5.60;99.90
12015;DHT22;6066;48.138;16.402;2023-02-01T11:52:55;5.50;99.90
12015;DHT22;6066;48.138;16.402;2023-02-01T11:55:32;5.40;99.90
12015;DHT22;6066;48.138;16.402;2023-02-01T11:58:03;5.40;99.90
12015;DHT22;6066;48.138;16.402;2023-02-01T12:00:39;5.30;99.90
12015;DHT22;6066;48.138;16.402;2023-02-01T12:05:59;5.40;99.90
12015;DHT22;6066;48.138;16.402;2023-02-01T12:08:31;5.40;99.90
12015;DHT22;6066;48.138;16.402;2023-02-01T12:11:09;5.60;99.90
12015;DHT22;6066;48.138;16.402;2023-02-01T12:13:44;5.70;99.90
12015;DHT22;6066;48.138;16.402;2023-02-01T12:16:19;5.90;99.90
12015;DHT22;6066;48.138;16.402;2023-02-01T12:19:01;6.00;99.90
12015;DHT22;6066;48.138;16.402;2023-02-01T12:21:36;6.10;99.90
12015;DHT22;6066;48.138;16.402;2023-02-01T12:26:53;6.30;99.90
12015;DHT22;6066;48.138;16.402;2023-02-01T12:29:29;6.40;99.90
12015;DHT22;6066;48.138;16.402;2023-02-01T12:32:13;6.40;99.90
12015;DHT22;6066;48.138;16.402;2023-02-01T12:34:48;6.40;99.90
12015;DHT22;6066;48.138;16.402;2023-02-01T12:37:18;6.40;99.90
12015;DHT22;6066;48.138;16.402;2023-02-01T12:39:49;6.40;99.90
12015;DHT22;6066;48.138;16.402;2023-02-01T12:42:21;6.40;99.90
12015;DHT22;6066;48.138;16.402;2023-02-01T12:44:50;6.40;99.90
12015;DHT22;6066;48.138;16.402;2023-02-01T12:47:22;6.50;99.90
12015;DHT22;6066;48.138;16.402;2023-02-01T12:49:53;6.70;99.90
12015;DHT22;6066;48.138;16.402;2023-02-01T12:52:23;6.90;99.90
12015;DHT22;6066;48.138;16.402;2023-02-01T12:54:53;7.30;99.90
12015;DHT22;6066;48.138;16.402;2023-02-01T12:57:23;7.60;99.90
12015;DHT22;6066;48.138;16.402;2023-02-01T12:59:53;7.90;99.90
12015;DHT22;6066;48.138;16.402;2023-02-01T13:02:24;8.00;99.90
12015;DHT22;6066;48.138;16.402;2023-02-01T13:04:55;8.00;99.90
12015;DHT22;6066;48.138;16.402;2023-02-01T13:07:27;8.10;99.90
12015;DHT22;6066;48.138;16.402;2023-02-01T13:09:55;8.00;99.90
12015;DHT22;6066;48.138;16.402;2023-02-01T13:12:26;8.00;99.90
12015;DHT22;6066;48.138;16.402;2023-02-01T13:14:55;8.10;99.90
12015;DHT22;6066;48.138;16.402;2023-02-01T13:17:24;8.20;99.90
12015;DHT22;6066;48.138;16.402;2023-02-01T13:19:53;8.10;99.90
12015;DHT22;6066;48.138;16.402;2023-02-01T13:22:22;8.10;99.90
12015;DHT22;6066;48.138;16.402;2023-02-01T13:24:51;8.10;99.90
12015;DHT22;6066;48.138;16.402;2023-02-01T13:27:18;8.20;99.90
12015;DHT22;6066;48.138;16.402;2023-02-01T13:29:48;8.20;99.90
12015;DHT22;6066;48.138;16.402;2023-02-01T13:32:20;8.10;99.90
12015;DHT22;6066;48.138;16.402;2023-02-01T13:34:56;8.10;99.90
12015;DHT22;6066;48.138;16.402;2023-02-01T13:37:32;8.10;99.90
12015;DHT22;6066;48.138;16.402;2023-02-01T13:40:17;8.10;99.90
12015;DHT22;6066;48.138;16.402;2023-02-01T13:42:48;8.10;99.90
12015;DHT22;6066;48.138;16.402;2023-02-01T13:45:16;7.90;99.90
12015;DHT22;6066;48.138;16.402;2023-02-01T13:47:45;7.60;99.90
12015;DHT22;6066;48.138;16.402;2023-02-01T13:50:21;7.30;99.90
12015;DHT22;6066;48.138;16.402;2023-02-01T13:52:53;7.10;99.90
12015;DHT22;6066;48.138;16.402;2023-02-01T13:55:25;6.80;99.90
12015;DHT22;6066;48.138;16.402;2023-02-01T13:57:59;6.70;99.90
12015;DHT22;6066;48.138;16.402;2023-02-01T14:00:27;6.70;99.90
12015;DHT22;6066;48.138;16.402;2023-02-01T14:03:06;6.70;99.90
12015;DHT22;6066;48.138;16.402;2023-02-01T14:08:35;6.60;99.90
12015;DHT22;6066;48.138;16.402;2023-02-01T14:11:03;6.50;99.90
12015;DHT22;6066;48.138;16.402;2023-02-01T14:13:31;6.50;99.90
12015;DHT22;6066;48.138;16.402;2023-02-01T14:16:11;6.50;99.90
12015;DHT22;6066;48.138;16.402;2023-02-01T14:18:58;6.80;99.90
12015;DHT22;6066;48.138;16.402;2023-02-01T14:21:26;6.80;99.90
12015;DHT22;6066;48.138;16.402;2023-02-01T14:23:59;6.90;99.90
12015;DHT22;6066;48.138;16.402;2023-02-01T14:26:26;6.90;99.90
12015;DHT22;6066;48.138;16.402;2023-02-01T14:28:56;6.80;99.90
12015;DHT22;6066;48.138;16.402;2023-02-01T14:31:43;6.60;99.90
12015;DHT22;6066;48.138;16.402;2023-02-01T14:34:12;6.50;99.90
12015;DHT22;6066;48.138;16.402;2023-02-01T14:36:40;6.40;99.90
12015;DHT22;6066;48.138;16.402;2023-02-01T14:39:22;6.40;99.90
12015;DHT22;6066;48.138;16.402;2023-02-01T14:41:51;6.40;99.90
12015;DHT22;6066;48.138;16.402;2023-02-01T14:44:29;6.30;99.90
12015;DHT22;6066;48.138;16.402;2023-02-01T14:47:03;6.20;99.90
12015;DHT22;6066;48.138;16.402;2023-02-01T14:49:30;6.10;99.90
12015;DHT22;6066;48.138;16.402;2023-02-01T14:51:57;6.00;99.90
12015;DHT22;6066;48.138;16.402;2023-02-01T14:54:25;6.00;99.90
12015;DHT22;6066;48.138;16.402;2023-02-01T14:56:52;5.90;99.90
12015;DHT22;6066;48.138;16.402;2023-02-01T14:59:20;5.90;99.90
12015;DHT22;6066;48.138;16.402;2023-02-01T15:01:49;5.90;99.90
12015;DHT22;6066;48.138;16.402;2023-02-01T15:04:17;5.80;99.90
12015;DHT22;6066;48.138;16.402;2023-02-01T15:06:47;5.80;99.90
12015;DHT22;6066;48.138;16.402;2023-02-01T15:09:15;5.80;99.90
12015;DHT22;6066;48.138;16.402;2023-02-01T15:11:57;5.80;99.90
12015;DHT22;6066;48.138;16.402;2023-02-01T15:14:25;5.70;99.90
12015;DHT22;6066;48.138;16.402;2023-02-01T15:16:51;5.70;99.90
12015;DHT22;6066;48.138;16.402;2023-02-01T15:19:20;5.60;99.90
12015;DHT22;6066;48.138;16.402;2023-02-01T15:21:48;5.60;99.90
12015;DHT22;6066;48.138;16.402;2023-02-01T15:24:19;5.50;99.90
12015;DHT22;6066;48.138;16.402;2023-02-01T15:26:46;5.40;99.90
12015;DHT22;6066;48.138;16.402;2023-02-01T15:29:14;5.40;99.90
12015;DHT22;6066;48.138;16.402;2023-02-01T15:31:42;5.30;99.90
12015;DHT22;6066;48.138;16.402;2023-02-01T15:34:10;5.30;99.90
12015;DHT22;6066;48.138;16.402;2023-02-01T15:36:37;5.40;99.90
12015;DHT22;6066;48.138;16.402;2023-02-01T15:39:17;5.30;99.90
12015;DHT22;6066;48.138;16.402;2023-02-01T15:41:46;5.40;99.90
12015;DHT22;6066;48.138;16.402;2023-02-01T15:44:17;5.30;99.90
12015;DHT22;6066;48.138;16.402;2023-02-01T15:46:45;5.30;99.90
12015;DHT22;6066;48.138;16.402;2023-02-01T15:49:19;5.30;99.90
12015;DHT22;6066;48.138;16.402;2023-02-01T15:51:47;5.30;99.90
12015;DHT22;6066;48.138;16.402;2023-02-01T15:54:16;5.30;99.90
12015;DHT22;6066;48.138;16.402;2023-02-01T15:56:48;5.30;99.90
12015;DHT22;6066;48.138;16.402;2023-02-01T15:59:18;5.30;99.90
12015;DHT22;6066;48.138;16.402;2023-02-01T16:01:45;5.30;99.90
12015;DHT22;6066;48.138;16.402;2023-02-01T16:04:14;5.30;99.90
12015;DHT22;6066;48.138;16.402;2023-02-01T16:06:45;5.30;99.90
12015;DHT22;6066;48.138;16.402;2023-02-01T16:09:13;5.30;99.90
12015;DHT22;6066;48.138;16.402;2023-02-01T16:11:41;5.30;99.90
12015;DHT22;6066;48.138;16.402;2023-02-01T16:14:08;5.30;99.90
12015;DHT22;6066;48.138;16.402;2023-02-01T16:16:38;5.40;99.90
12015;DHT22;6066;48.138;16.402;2023-02-01T16:19:04;5.40;99.90
12015;DHT22;6066;48.138;16.402;2023-02-01T16:21:31;5.40;99.90